Carthage, Maine
Current Conditions -  °F | °C
As of 10:53 AM on Sunday 21 Dec 2014 (Local Time) from KAUG Reporting Station
Overcast Overcast  
Wind Chill: 16°   Ceiling: 4200
Heat Index: 25°   Visibility: 10mi
Dew Point: 20°   Wind: 9mph
Humidity: 81%   Direction: 330°NNW
Pressure: 30.35"   Gusts: NA
Location:  44.5803°N, 70.4003°W
Report Text: KAUG 211553Z AUTO 33008KT 10SM SCT011 OVC042 M04/M07 A3035 RMK AO2 SLP284 T10391067
Loading
Personal Weather Stations






























Interactive Weather Map New forecast layout! Learn more

10-Day Weather Forecast

Advertisements
Track Severe Weather on mobile